sensor_id;sensor_type;location;lat;lon;timestamp;pressure;altitude;pressure_sealevel;temperature;humidity
6567;BME280;3317;43.994;22.878;2022-08-06T00:01:52;100540.59;;;29.75;34.53
6567;BME280;3317;43.994;22.878;2022-08-06T00:04:21;100532.81;;;29.72;34.08
6567;BME280;3317;43.994;22.878;2022-08-06T00:06:51;100495.81;;;29.40;34.85
6567;BME280;3317;43.994;22.878;2022-08-06T00:09:18;100548.47;;;29.68;35.17
6567;BME280;3317;43.994;22.878;2022-08-06T00:11:45;100541.50;;;29.65;34.95
6567;BME280;3317;43.994;22.878;2022-08-06T00:14:13;100538.16;;;29.58;35.15
6567;BME280;3317;43.994;22.878;2022-08-06T00:16:41;100546.28;;;29.59;35.29
6567;BME280;3317;43.994;22.878;2022-08-06T00:19:08;100551.03;;;29.59;34.96
6567;BME280;3317;43.994;22.878;2022-08-06T00:21:36;100552.13;;;29.58;34.88
6567;BME280;3317;43.994;22.878;2022-08-06T00:24:04;100499.00;;;29.18;35.34
6567;BME280;3317;43.994;22.878;2022-08-06T00:26:31;100555.22;;;29.51;35.18
6567;BME280;3317;43.994;22.878;2022-08-06T00:28:58;100545.19;;;29.50;34.52
6567;BME280;3317;43.994;22.878;2022-08-06T00:31:25;100553.88;;;29.48;35.46
6567;BME280;3317;43.994;22.878;2022-08-06T00:33:52;100550.81;;;29.45;35.33
6567;BME280;3317;43.994;22.878;2022-08-06T00:36:21;100559.19;;;29.45;35.50
6567;BME280;3317;43.994;22.878;2022-08-06T00:38:50;100562.25;;;29.43;35.86
6567;BME280;3317;43.994;22.878;2022-08-06T00:41:17;100555.53;;;29.39;36.06
6567;BME280;3317;43.994;22.878;2022-08-06T00:43:44;100550.53;;;29.36;35.84
6567;BME280;3317;43.994;22.878;2022-08-06T00:46:12;100506.84;;;29.05;34.64
6567;BME280;3317;43.994;22.878;2022-08-06T00:48:39;100557.78;;;29.32;34.89
6567;BME280;3317;43.994;22.878;2022-08-06T00:51:06;100558.38;;;29.29;35.33
6567;BME280;3317;43.994;22.878;2022-08-06T00:53:33;100561.75;;;29.26;33.84
6567;BME280;3317;43.994;22.878;2022-08-06T00:56:05;100557.59;;;29.18;34.62
6567;BME280;3317;43.994;22.878;2022-08-06T00:58:32;100555.38;;;29.15;35.65
6567;BME280;3317;43.994;22.878;2022-08-06T01:00:59;100546.19;;;29.09;35.91
6567;BME280;3317;43.994;22.878;2022-08-06T01:03:26;100553.16;;;29.06;36.23
6567;BME280;3317;43.994;22.878;2022-08-06T01:05:53;100550.13;;;28.98;36.47
6567;BME280;3317;43.994;22.878;2022-08-06T01:08:20;100560.97;;;28.99;35.10
6567;BME280;3317;43.994;22.878;2022-08-06T01:10:47;100556.00;;;28.91;35.31
6567;BME280;3317;43.994;22.878;2022-08-06T01:13:15;100557.94;;;28.85;36.01
6567;BME280;3317;43.994;22.878;2022-08-06T01:15:52;100559.88;;;28.79;36.39
6567;BME280;3317;43.994;22.878;2022-08-06T01:18:25;100546.78;;;28.70;36.91
6567;BME280;3317;43.994;22.878;2022-08-06T01:21:06;100551.53;;;28.64;36.85
6567;BME280;3317;43.994;22.878;2022-08-06T01:23:59;100540.66;;;28.52;37.19
6567;BME280;3317;43.994;22.878;2022-08-06T01:26:36;100558.78;;;28.55;37.29
6567;BME280;3317;43.994;22.878;2022-08-06T01:29:11;100556.56;;;28.51;37.00
6567;BME280;3317;43.994;22.878;2022-08-06T01:31:48;100550.44;;;28.49;37.03
6567;BME280;3317;43.994;22.878;2022-08-06T01:34:22;100531.78;;;28.34;37.29
6567;BME280;3317;43.994;22.878;2022-08-06T01:36:55;100543.19;;;28.38;37.04
6567;BME280;3317;43.994;22.878;2022-08-06T01:39:25;100563.53;;;28.44;37.04
6567;BME280;3317;43.994;22.878;2022-08-06T01:41:54;100547.63;;;28.44;37.16
6567;BME280;3317;43.994;22.878;2022-08-06T01:44:27;100550.44;;;28.39;37.38
6567;BME280;3317;43.994;22.878;2022-08-06T01:46:58;100540.97;;;28.30;37.09
6567;BME280;3317;43.994;22.878;2022-08-06T01:49:29;100494.13;;;28.01;37.36
6567;BME280;3317;43.994;22.878;2022-08-06T01:51:59;100547.91;;;28.27;38.02
6567;BME280;3317;43.994;22.878;2022-08-06T01:54:29;100537.59;;;28.22;38.12
6567;BME280;3317;43.994;22.878;2022-08-06T01:56:58;100536.75;;;28.17;38.17
6567;BME280;3317;43.994;22.878;2022-08-06T01:59:31;100534.25;;;28.15;37.88
6567;BME280;3317;43.994;22.878;2022-08-06T02:02:00;100533.69;;;28.13;38.48
6567;BME280;3317;43.994;22.878;2022-08-06T02:04:33;100529.50;;;28.05;37.38
6567;BME280;3317;43.994;22.878;2022-08-06T02:07:03;100535.06;;;28.05;38.28
6567;BME280;3317;43.994;22.878;2022-08-06T02:09:33;100522.53;;;27.97;38.52
6567;BME280;3317;43.994;22.878;2022-08-06T02:12:08;100522.81;;;27.96;38.58
6567;BME280;3317;43.994;22.878;2022-08-06T02:14:40;100530.31;;;27.95;38.54
6567;BME280;3317;43.994;22.878;2022-08-06T02:17:10;100523.63;;;27.91;38.67
6567;BME280;3317;43.994;22.878;2022-08-06T02:19:40;100533.09;;;27.90;38.97
6567;BME280;3317;43.994;22.878;2022-08-06T02:22:10;100532.25;;;27.90;38.73
6567;BME280;3317;43.994;22.878;2022-08-06T02:24:38;100532.53;;;27.88;38.94
6567;BME280;3317;43.994;22.878;2022-08-06T02:27:07;100514.41;;;27.75;39.07
6567;BME280;3317;43.994;22.878;2022-08-06T02:29:38;100482.09;;;27.53;39.12
6567;BME280;3317;43.994;22.878;2022-08-06T02:32:07;100530.84;;;27.82;38.94
6567;BME280;3317;43.994;22.878;2022-08-06T02:34:34;100529.72;;;27.78;38.96
6567;BME280;3317;43.994;22.878;2022-08-06T02:37:06;100540.88;;;27.78;38.65
6567;BME280;3317;43.994;22.878;2022-08-06T02:39:38;100546.13;;;27.74;39.08
6567;BME280;3317;43.994;22.878;2022-08-06T02:42:09;100544.47;;;27.73;39.01
6567;BME280;3317;43.994;22.878;2022-08-06T02:44:45;100541.38;;;27.69;38.98
6567;BME280;3317;43.994;22.878;2022-08-06T02:47:21;100556.41;;;27.63;39.61
6567;BME280;3317;43.994;22.878;2022-08-06T02:49:53;100553.06;;;27.61;39.12
6567;BME280;3317;43.994;22.878;2022-08-06T02:52:29;100549.97;;;27.52;39.20
6567;BME280;3317;43.994;22.878;2022-08-06T02:55:00;100549.09;;;27.47;39.46
6567;BME280;3317;43.994;22.878;2022-08-06T02:57:32;100549.38;;;27.45;39.16
6567;BME280;3317;43.994;22.878;2022-08-06T03:00:07;100559.13;;;27.48;39.78
6567;BME280;3317;43.994;22.878;2022-08-06T03:02:38;100561.06;;;27.47;39.60
6567;BME280;3317;43.994;22.878;2022-08-06T03:05:09;100566.59;;;27.42;39.57
6567;BME280;3317;43.994;22.878;2022-08-06T03:07:39;100525.59;;;27.11;39.93
6567;BME280;3317;43.994;22.878;2022-08-06T03:10:09;100572.41;;;27.35;40.06
6567;BME280;3317;43.994;22.878;2022-08-06T03:12:37;100569.06;;;27.33;40.07
6567;BME280;3317;43.994;22.878;2022-08-06T03:15:08;100564.03;;;27.25;40.03
6567;BME280;3317;43.994;22.878;2022-08-06T03:17:37;100566.53;;;27.26;40.33
6567;BME280;3317;43.994;22.878;2022-08-06T03:20:06;100584.28;;;27.20;40.68
6567;BME280;3317;43.994;22.878;2022-08-06T03:22:35;100589.03;;;27.20;40.10
6567;BME280;3317;43.994;22.878;2022-08-06T03:25:04;100568.97;;;27.12;40.39
6567;BME280;3317;43.994;22.878;2022-08-06T03:27:33;100582.31;;;27.16;40.46
6567;BME280;3317;43.994;22.878;2022-08-06T03:30:03;100570.06;;;27.11;40.51
6567;BME280;3317;43.994;22.878;2022-08-06T03:32:32;100577.31;;;27.12;40.54
6567;BME280;3317;43.994;22.878;2022-08-06T03:35:00;100586.19;;;27.09;41.01
6567;BME280;3317;43.994;22.878;2022-08-06T03:37:30;100574.50;;;27.07;40.67
6567;BME280;3317;43.994;22.878;2022-08-06T03:39:59;100578.66;;;27.05;40.59
6567;BME280;3317;43.994;22.878;2022-08-06T03:42:27;100586.16;;;27.04;40.81
6567;BME280;3317;43.994;22.878;2022-08-06T03:44:54;100563.88;;;26.94;40.68
6567;BME280;3317;43.994;22.878;2022-08-06T03:47:23;100570.00;;;26.96;40.46
6567;BME280;3317;43.994;22.878;2022-08-06T03:50:05;100574.97;;;26.94;40.72
6567;BME280;3317;43.994;22.878;2022-08-06T03:52:38;100585.56;;;26.97;40.57
6567;BME280;3317;43.994;22.878;2022-08-06T03:55:07;100574.94;;;26.89;41.33
6567;BME280;3317;43.994;22.878;2022-08-06T03:57:38;100594.47;;;26.99;41.07
6567;BME280;3317;43.994;22.878;2022-08-06T04:00:08;100595.03;;;27.01;41.00
6567;BME280;3317;43.994;22.878;2022-08-06T04:02:38;100593.34;;;27.00;40.94
6567;BME280;3317;43.994;22.878;2022-08-06T04:05:10;100604.22;;;27.02;40.85
6567;BME280;3317;43.994;22.878;2022-08-06T04:07:38;100483.88;;;26.25;40.51
6567;BME280;3317;43.994;22.878;2022-08-06T04:10:07;100607.81;;;27.02;40.40
6567;BME280;3317;43.994;22.878;2022-08-06T04:12:35;100606.47;;;27.05;40.82
6567;BME280;3317;43.994;22.878;2022-08-06T04:15:04;100619.25;;;27.06;40.80
6567;BME280;3317;43.994;22.878;2022-08-06T04:17:33;100621.25;;;27.10;40.68
6567;BME280;3317;43.994;22.878;2022-08-06T04:20:09;100618.47;;;27.16;40.75
6567;BME280;3317;43.994;22.878;2022-08-06T04:22:37;100609.56;;;27.13;40.76
6567;BME280;3317;43.994;22.878;2022-08-06T04:25:04;100626.88;;;27.26;40.45
6567;BME280;3317;43.994;22.878;2022-08-06T04:27:38;100621.06;;;27.27;40.67
6567;BME280;3317;43.994;22.878;2022-08-06T04:30:06;100631.41;;;27.37;40.20
6567;BME280;3317;43.994;22.878;2022-08-06T04:32:34;100630.84;;;27.40;40.44
6567;BME280;3317;43.994;22.878;2022-08-06T04:35:03;100628.94;;;27.46;39.74
6567;BME280;3317;43.994;22.878;2022-08-06T04:37:33;100628.69;;;27.48;39.80
6567;BME280;3317;43.994;22.878;2022-08-06T04:40:03;100641.56;;;27.59;39.92
6567;BME280;3317;43.994;22.878;2022-08-06T04:42:32;100637.94;;;27.64;39.91
6567;BME280;3317;43.994;22.878;2022-08-06T04:45:00;100628.22;;;27.66;39.75
6567;BME280;3317;43.994;22.878;2022-08-06T04:47:30;100644.16;;;27.81;39.17
6567;BME280;3317;43.994;22.878;2022-08-06T04:49:57;100626.06;;;27.79;39.57
6567;BME280;3317;43.994;22.878;2022-08-06T04:52:25;100637.22;;;27.89;39.69
6567;BME280;3317;43.994;22.878;2022-08-06T04:54:54;100647.28;;;28.06;39.60
6567;BME280;3317;43.994;22.878;2022-08-06T04:57:21;100640.34;;;28.08;39.39
6567;BME280;3317;43.994;22.878;2022-08-06T04:59:49;100496.16;;;27.26;39.39
6567;BME280;3317;43.994;22.878;2022-08-06T05:02:17;100655.19;;;28.35;39.20
6567;BME280;3317;43.994;22.878;2022-08-06T05:04:44;100657.44;;;28.43;38.92
6567;BME280;3317;43.994;22.878;2022-08-06T05:07:15;100656.88;;;28.46;39.30
6567;BME280;3317;43.994;22.878;2022-08-06T05:09:43;100658.84;;;28.61;38.91
6567;BME280;3317;43.994;22.878;2022-08-06T05:12:20;100654.69;;;28.64;38.92
6567;BME280;3317;43.994;22.878;2022-08-06T05:14:52;100664.47;;;28.82;38.83
6567;BME280;3317;43.994;22.878;2022-08-06T05:17:23;100660.00;;;28.91;38.66
6567;BME280;3317;43.994;22.878;2022-08-06T05:19:55;100667.81;;;29.00;38.63
6567;BME280;3317;43.994;22.878;2022-08-06T05:22:22;100647.13;;;29.06;38.53
6567;BME280;3317;43.994;22.878;2022-08-06T05:24:50;100653.00;;;29.20;38.01
6567;BME280;3317;43.994;22.878;2022-08-06T05:27:20;100663.84;;;29.37;37.73
6567;BME280;3317;43.994;22.878;2022-08-06T05:29:47;100664.66;;;29.48;37.57
6567;BME280;3317;43.994;22.878;2022-08-06T05:32:15;100662.41;;;29.60;37.59
6567;BME280;3317;43.994;22.878;2022-08-06T05:34:46;100669.63;;;29.72;37.15
6567;BME280;3317;43.994;22.878;2022-08-06T05:37:13;100662.88;;;29.83;36.94
6567;BME280;3317;43.994;22.878;2022-08-06T05:39:40;100665.03;;;29.97;37.06
6567;BME280;3317;43.994;22.878;2022-08-06T05:42:07;100661.38;;;30.12;36.83
6567;BME280;3317;43.994;22.878;2022-08-06T05:44:35;100653.22;;;30.20;36.65
6567;BME280;3317;43.994;22.878;2022-08-06T05:47:05;100645.03;;;30.29;36.55
6567;BME280;3317;43.994;22.878;2022-08-06T05:49:39;100670.31;;;30.54;36.27
6567;BME280;3317;43.994;22.878;2022-08-06T05:52:11;100669.09;;;30.70;36.08
6567;BME280;3317;43.994;22.878;2022-08-06T05:54:44;100661.19;;;30.83;36.11
6567;BME280;3317;43.994;22.878;2022-08-06T05:57:19;100667.69;;;31.02;36.19
6567;BME280;3317;43.994;22.878;2022-08-06T06:00:01;100659.75;;;31.15;35.94
6567;BME280;3317;43.994;22.878;2022-08-06T06:02:33;100668.25;;;31.34;35.61
6567;BME280;3317;43.994;22.878;2022-08-06T06:05:00;100669.22;;;31.49;35.59
6567;BME280;3317;43.994;22.878;2022-08-06T06:07:31;100677.41;;;31.64;35.33
6567;BME280;3317;43.994;22.878;2022-08-06T06:10:00;100670.22;;;31.82;34.56
6567;BME280;3317;43.994;22.878;2022-08-06T06:12:28;100674.56;;;31.94;34.29
6567;BME280;3317;43.994;22.878;2022-08-06T06:14:57;100670.25;;;32.01;34.09
6567;BME280;3317;43.994;22.878;2022-08-06T07:49:43;100640.72;;;37.55;26.31
6567;BME280;3317;43.994;22.878;2022-08-06T08:09:51;100645.06;;;38.68;25.24
6567;BME280;3317;43.994;22.878;2022-08-06T08:19:25;100635.84;;;39.17;23.94
6567;BME280;3317;43.994;22.878;2022-08-06T08:28:45;100638.84;;;39.58;23.98
6567;BME280;3317;43.994;22.878;2022-08-06T08:31:12;100620.44;;;39.64;23.52
6567;BME280;3317;43.994;22.878;2022-08-06T08:33:49;100625.47;;;39.83;23.67
6567;BME280;3317;43.994;22.878;2022-08-06T08:36:31;100629.25;;;40.00;23.25
6567;BME280;3317;43.994;22.878;2022-08-06T09:12:29;100616.97;;;40.24;23.43
6567;BME280;3317;43.994;22.878;2022-08-06T09:14:58;100614.72;;;40.30;23.35
6567;BME280;3317;43.994;22.878;2022-08-06T09:24:29;100607.38;;;41.02;22.71
6567;BME280;3317;43.994;22.878;2022-08-06T09:30:59;100617.22;;;40.60;22.44
6567;BME280;3317;43.994;22.878;2022-08-06T09:36:49;100607.75;;;41.01;23.33
6567;BME280;3317;43.994;22.878;2022-08-06T09:39:16;100606.66;;;41.21;22.42
6567;BME280;3317;43.994;22.878;2022-08-06T09:42:36;100596.88;;;41.19;22.62
6567;BME280;3317;43.994;22.878;2022-08-06T09:45:07;100591.44;;;41.30;22.49
6567;BME280;3317;43.994;22.878;2022-08-06T09:58:05;100597.16;;;41.65;21.93
6567;BME280;3317;43.994;22.878;2022-08-06T11:25:08;100508.22;;;42.71;18.93
6567;BME280;3317;43.994;22.878;2022-08-06T11:51:58;100501.19;;;42.21;19.11
6567;BME280;3317;43.994;22.878;2022-08-06T11:54:30;100491.78;;;42.17;18.70
6567;BME280;3317;43.994;22.878;2022-08-06T12:36:30;100443.56;;;41.26;18.66
6567;BME280;3317;43.994;22.878;2022-08-06T12:49:00;100431.00;;;40.75;19.13
6567;BME280;3317;43.994;22.878;2022-08-06T12:51:28;100420.66;;;40.83;19.69
6567;BME280;3317;43.994;22.878;2022-08-06T13:38:35;100390.91;;;40.45;19.94
6567;BME280;3317;43.994;22.878;2022-08-06T14:15:26;100371.53;;;39.41;20.29
6567;BME280;3317;43.994;22.878;2022-08-06T17:00:06;100312.38;;;37.41;23.20
6567;BME280;3317;43.994;22.878;2022-08-06T17:02:59;100299.91;;;37.42;22.99
6567;BME280;3317;43.994;22.878;2022-08-06T17:22:38;100296.84;;;37.13;23.58
6567;BME280;3317;43.994;22.878;2022-08-06T17:25:07;100307.53;;;37.08;23.45
6567;BME280;3317;43.994;22.878;2022-08-06T17:27:35;100308.56;;;37.03;23.78
6567;BME280;3317;43.994;22.878;2022-08-06T17:40:55;100309.63;;;36.89;25.51
6567;BME280;3317;43.994;22.878;2022-08-06T17:57:35;100308.47;;;36.69;25.65
6567;BME280;3317;43.994;22.878;2022-08-06T19:17:29;100346.63;;;35.89;26.13
6567;BME280;3317;43.994;22.878;2022-08-06T20:02:51;100348.31;;;35.02;28.83
6567;BME280;3317;43.994;22.878;2022-08-06T20:05:18;100358.28;;;35.08;29.15
6567;BME280;3317;43.994;22.878;2022-08-06T20:18:36;100339.25;;;35.05;27.40
6567;BME280;3317;43.994;22.878;2022-08-06T20:21:04;100349.50;;;35.09;28.11
6567;BME280;3317;43.994;22.878;2022-08-06T20:23:32;100347.19;;;35.03;28.93
6567;BME280;3317;43.994;22.878;2022-08-06T20:33:16;100378.50;;;35.10;28.77
6567;BME280;3317;43.994;22.878;2022-08-06T20:35:45;100398.00;;;34.97;29.99
6567;BME280;3317;43.994;22.878;2022-08-06T20:38:12;100405.88;;;34.78;30.84
6567;BME280;3317;43.994;22.878;2022-08-06T20:41:05;100422.06;;;34.63;31.19
6567;BME280;3317;43.994;22.878;2022-08-06T20:43:32;100420.13;;;34.41;31.22
6567;BME280;3317;43.994;22.878;2022-08-06T20:45:59;100386.03;;;34.02;31.36
6567;BME280;3317;43.994;22.878;2022-08-06T20:52:02;100438.06;;;34.22;31.70
6567;BME280;3317;43.994;22.878;2022-08-06T20:57:35;100441.53;;;34.19;31.34
6567;BME280;3317;43.994;22.878;2022-08-06T21:00:04;100435.84;;;34.10;31.73
6567;BME280;3317;43.994;22.878;2022-08-06T21:02:31;100433.69;;;34.07;31.59
6567;BME280;3317;43.994;22.878;2022-08-06T21:05:09;100434.84;;;34.06;31.68
6567;BME280;3317;43.994;22.878;2022-08-06T21:07:43;100440.78;;;34.05;31.77
6567;BME280;3317;43.994;22.878;2022-08-06T21:10:11;100424.13;;;33.94;32.02
6567;BME280;3317;43.994;22.878;2022-08-06T21:12:38;100426.75;;;33.91;32.26
6567;BME280;3317;43.994;22.878;2022-08-06T21:15:10;100422.09;;;33.86;32.38
6567;BME280;3317;43.994;22.878;2022-08-06T21:17:38;100426.91;;;33.85;32.79
6567;BME280;3317;43.994;22.878;2022-08-06T21:20:06;100430.97;;;33.79;33.01
6567;BME280;3317;43.994;22.878;2022-08-06T21:33:04;100455.75;;;33.54;33.83
6567;BME280;3317;43.994;22.878;2022-08-06T21:39:10;100447.34;;;33.40;34.45
6567;BME280;3317;43.994;22.878;2022-08-06T21:41:40;100458.16;;;33.33;34.08
6567;BME280;3317;43.994;22.878;2022-08-06T21:44:07;100459.44;;;33.27;34.22
6567;BME280;3317;43.994;22.878;2022-08-06T21:46:34;100458.28;;;33.28;33.41
6567;BME280;3317;43.994;22.878;2022-08-06T21:49:21;100466.56;;;33.33;33.35
6567;BME280;3317;43.994;22.878;2022-08-06T21:52:01;100459.50;;;33.36;33.72
6567;BME280;3317;43.994;22.878;2022-08-06T21:54:28;100456.91;;;33.25;33.54
6567;BME280;3317;43.994;22.878;2022-08-06T21:56:55;100479.47;;;33.34;34.23
6567;BME280;3317;43.994;22.878;2022-08-06T22:19:57;100486.53;;;32.76;36.38
